createdAt,value
2023-01-19T00:01:08.000Z,72.07
2023-01-19T00:03:47.683Z,71.40
2023-01-19T00:06:17.941Z,72.72
2023-01-19T00:08:49.880Z,72.21
2023-01-19T00:11:22.954Z,70.94
2023-01-19T00:13:54.216Z,72.56
2023-01-19T00:16:29.341Z,73.00
2023-01-19T00:19:07.986Z,72.48
2023-01-19T00:21:38.727Z,71.15
2023-01-19T00:24:06.453Z,71.34
2023-01-19T00:26:42.089Z,71.38
2023-01-19T00:29:14.530Z,71.68
2023-01-19T00:31:41.092Z,72.61
2023-01-19T00:34:08.321Z,72.23
2023-01-19T00:36:34.825Z,71.90
2023-01-19T00:39:01.262Z,72.01
2023-01-19T00:41:59.875Z,71.53
2023-01-19T00:44:26.328Z,71.28
2023-01-19T00:46:52.807Z,70.85
2023-01-19T00:49:19.196Z,71.06
2023-01-19T00:51:45.614Z,70.94
2023-01-19T00:54:13.180Z,70.60
2023-01-19T00:56:39.645Z,69.81
2023-01-19T00:59:06.111Z,69.92
2023-01-19T01:01:45.173Z,69.64
2023-01-19T01:04:13.519Z,69.56
2023-01-19T01:06:40.065Z,70.10
2023-01-19T01:09:11.757Z,70.26
2023-01-19T01:11:39.892Z,70.65
2023-01-19T01:14:07.269Z,70.37
2023-01-19T01:16:33.910Z,70.20
2023-01-19T01:19:00.353Z,69.57
2023-01-19T01:21:26.865Z,70.49
2023-01-19T01:23:53.244Z,69.43
2023-01-19T01:26:19.640Z,69.58
2023-01-19T01:28:46.110Z,70.29
2023-01-19T01:31:12.792Z,69.97
2023-01-19T01:33:41.740Z,69.79
2023-01-19T01:36:10.190Z,70.22
2023-01-19T01:38:37.199Z,70.54
2023-01-19T01:41:04.557Z,69.61
2023-01-19T01:43:58.667Z,70.26
2023-01-19T01:46:27.528Z,70.26
2023-01-19T01:49:15.663Z,70.67
2023-01-19T01:51:48.460Z,70.40
2023-01-19T01:54:33.013Z,70.63
2023-01-19T01:57:07.111Z,69.21
2023-01-19T01:59:41.974Z,68.54
2023-01-19T02:02:37.566Z,69.50
2023-01-19T02:05:12.601Z,69.65
2023-01-19T02:08:21.360Z,69.56
2023-01-19T02:11:10.677Z,69.21
2023-01-19T02:13:44.300Z,70.03
2023-01-19T02:16:15.256Z,69.85
2023-01-19T02:18:43.338Z,70.49
2023-01-19T02:21:16.490Z,71.29
2023-01-19T02:23:53.477Z,72.15
2023-01-19T02:26:31.080Z,71.49
2023-01-19T02:29:08.857Z,71.58
2023-01-19T02:31:37.343Z,71.00
2023-01-19T02:34:05.051Z,70.91
2023-01-19T02:36:53.477Z,71.42
2023-01-19T02:39:33.819Z,72.68
2023-01-19T02:42:04.314Z,71.89
2023-01-19T02:44:32.274Z,71.24
2023-01-19T02:46:59.124Z,71.05
2023-01-19T02:49:29.997Z,70.75
2023-01-19T02:51:57.620Z,71.36
2023-01-19T02:54:29.975Z,72.08
2023-01-19T02:57:19.352Z,71.67
2023-01-19T02:59:48.783Z,71.84
2023-01-19T03:02:52.796Z,71.78
2023-01-19T03:05:34.076Z,71.21
2023-01-19T03:08:06.440Z,71.45
2023-01-19T03:10:41.039Z,71.49
2023-01-19T03:13:22.196Z,71.67
2023-01-19T03:15:52.848Z,71.95
2023-01-19T03:18:23.079Z,71.70
2023-01-19T03:20:53.354Z,71.49
2023-01-19T03:23:22.200Z,70.94
2023-01-19T03:25:50.380Z,71.66
2023-01-19T03:28:20.112Z,71.48
2023-01-19T03:30:56.395Z,72.61
2023-01-19T03:33:29.262Z,71.43
2023-01-19T03:36:06.437Z,71.51
2023-01-19T03:38:37.485Z,71.40
2023-01-19T03:41:13.937Z,71.73
2023-01-19T03:43:43.053Z,71.73
2023-01-19T03:46:11.258Z,72.13
2023-01-19T03:48:39.179Z,73.12
2023-01-19T03:51:09.294Z,71.95
2023-01-19T03:53:36.752Z,71.89
2023-01-19T03:56:04.231Z,72.08
2023-01-19T03:58:31.577Z,72.33
2023-01-19T04:00:58.936Z,72.05
2023-01-19T04:03:26.080Z,71.92
2023-01-19T04:05:57.329Z,72.02
2023-01-19T04:08:27.443Z,72.46
2023-01-19T04:10:54.534Z,72.17
2023-01-19T04:13:23.793Z,72.63
2023-01-19T04:15:54.103Z,72.98
2023-01-19T04:18:21.238Z,73.42
2023-01-19T04:20:48.206Z,73.15
2023-01-19T04:23:15.458Z,73.49
2023-01-19T04:25:42.817Z,73.78
2023-01-19T04:28:10.293Z,73.04
2023-01-19T04:30:37.619Z,73.95
2023-01-19T04:33:04.482Z,73.82
2023-01-19T04:35:30.898Z,73.47
2023-01-19T04:37:57.274Z,73.06
2023-01-19T04:40:23.756Z,73.37
2023-01-19T04:42:50.951Z,73.66
2023-01-19T04:45:17.391Z,73.52
2023-01-19T04:47:43.861Z,73.49
2023-01-19T04:50:11.702Z,73.68
2023-01-19T04:52:38.269Z,74.06
2023-01-19T04:55:06.164Z,73.83
2023-01-19T04:57:32.703Z,73.79
2023-01-19T04:59:59.206Z,74.19
2023-01-19T05:02:26.213Z,74.05
2023-01-19T05:04:53.225Z,73.61
2023-01-19T05:07:19.681Z,73.61
2023-01-19T05:09:46.143Z,73.99
2023-01-19T05:12:12.749Z,73.57
2023-01-19T05:14:39.263Z,74.62
2023-01-19T05:17:05.775Z,74.41
2023-01-19T05:19:33.284Z,74.54
2023-01-19T05:22:11.093Z,73.78
2023-01-19T05:24:38.074Z,74.26
2023-01-19T05:27:05.242Z,74.08
2023-01-19T05:29:32.318Z,73.66
2023-01-19T05:31:59.326Z,74.34
2023-01-19T05:34:26.555Z,74.17
2023-01-19T05:36:53.862Z,74.16
2023-01-19T05:39:21.319Z,73.60
2023-01-19T05:41:48.129Z,74.31
2023-01-19T05:44:15.490Z,73.88
2023-01-19T05:46:42.491Z,73.91
2023-01-19T05:49:10.120Z,74.19
2023-01-19T05:51:38.611Z,74.09
2023-01-19T05:54:09.245Z,74.08
2023-01-19T05:56:36.144Z,73.12
2023-01-19T05:59:03.138Z,73.97
2023-01-19T06:01:35.089Z,73.79
2023-01-19T06:04:03.514Z,73.05
2023-01-19T06:06:33.516Z,73.47
2023-01-19T06:09:00.624Z,73.71
2023-01-19T06:11:30.439Z,74.09
2023-01-19T06:14:06.380Z,73.88
2023-01-19T06:16:36.502Z,74.09
2023-01-19T06:19:03.596Z,73.43
2023-01-19T06:21:32.317Z,73.93
2023-01-19T06:23:58.776Z,73.74
2023-01-19T06:26:26.159Z,73.77
2023-01-19T06:28:52.610Z,74.17
2023-01-19T06:31:19.170Z,73.50
2023-01-19T06:33:45.735Z,73.31
2023-01-19T06:36:12.214Z,74.44
2023-01-19T06:38:38.615Z,74.63
2023-01-19T06:41:05.523Z,73.87
2023-01-19T06:43:32.695Z,73.52
2023-01-19T06:46:00.496Z,73.62
2023-01-19T06:48:27.077Z,73.52
2023-01-19T06:50:53.457Z,73.65
2023-01-19T06:53:22.142Z,73.54
2023-01-19T06:55:48.747Z,74.31
2023-01-19T06:58:15.231Z,73.42
2023-01-19T07:00:43.019Z,73.35
2023-01-19T07:03:18.950Z,74.37
2023-01-19T07:05:45.492Z,73.63
2023-01-19T07:08:12.139Z,73.37
2023-01-19T07:11:25.799Z,73.60
2023-01-19T07:13:25.198Z,73.34
2023-01-19T07:15:51.668Z,73.52
2023-01-19T07:18:18.203Z,72.51
2023-01-19T07:20:46.943Z,73.26
2023-01-19T07:23:14.015Z,73.14
2023-01-19T07:25:48.941Z,73.36
2023-01-19T07:28:17.992Z,74.00
2023-01-19T07:30:46.361Z,73.92
2023-01-19T07:33:15.539Z,73.47
2023-01-19T07:35:50.171Z,72.21
2023-01-19T07:38:21.309Z,72.88
2023-01-19T07:40:51.152Z,71.95
2023-01-19T07:43:18.319Z,72.27
2023-01-19T07:45:47.220Z,72.04
2023-01-19T07:48:14.316Z,72.88
2023-01-19T07:50:41.313Z,72.16
2023-01-19T07:53:14.695Z,72.44
2023-01-19T07:55:41.497Z,72.66
2023-01-19T07:58:08.625Z,71.78
2023-01-19T08:00:37.149Z,72.26
2023-01-19T08:03:05.288Z,72.04
2023-01-19T08:05:33.341Z,71.62
2023-01-19T08:08:00.425Z,71.83
2023-01-19T08:10:31.201Z,72.22
2023-01-19T08:12:59.666Z,72.35
2023-01-19T08:15:27.365Z,71.81
2023-01-19T08:18:03.765Z,72.26
2023-01-19T08:20:33.792Z,71.31
2023-01-19T08:23:02.308Z,71.44
2023-01-19T08:25:42.368Z,71.02
2023-01-19T08:28:11.139Z,70.56
2023-01-19T08:30:38.949Z,71.04
2023-01-19T08:33:08.411Z,70.87
2023-01-19T08:35:40.671Z,70.77
2023-01-19T08:38:17.776Z,70.49
2023-01-19T08:40:44.788Z,69.82
2023-01-19T08:43:14.377Z,69.54
2023-01-19T08:45:49.254Z,69.86
2023-01-19T08:48:21.932Z,70.91
2023-01-19T08:50:53.352Z,69.95
2023-01-19T08:53:23.971Z,69.08
2023-01-19T08:56:00.384Z,69.02
2023-01-19T08:58:30.973Z,75.12
2023-01-19T09:01:03.925Z,64.96
2023-01-19T09:03:37.134Z,65.64
2023-01-19T09:06:17.303Z,66.82
2023-01-19T09:08:44.324Z,67.80
2023-01-19T09:11:12.165Z,67.02
2023-01-19T09:13:39.633Z,67.84
2023-01-19T09:16:07.829Z,67.19
2023-01-19T09:18:35.429Z,67.28
2023-01-19T09:21:03.903Z,67.28
2023-01-19T09:23:30.484Z,67.03
2023-01-19T09:25:59.565Z,67.13
2023-01-19T09:28:26.557Z,67.32
2023-01-19T09:30:53.214Z,67.59
2023-01-19T09:33:20.212Z,67.99
2023-01-19T09:35:48.402Z,67.34
2023-01-19T09:38:16.735Z,68.14
2023-01-19T09:40:47.508Z,68.21
2023-01-19T09:43:16.910Z,67.34
2023-01-19T09:45:47.801Z,67.90
2023-01-19T09:48:57.710Z,67.83
2023-01-19T09:51:32.772Z,67.62
2023-01-19T09:54:14.446Z,68.44
2023-01-19T09:56:41.765Z,67.77
2023-01-19T09:59:17.840Z,68.03
2023-01-19T10:01:59.341Z,67.72
2023-01-19T10:04:39.557Z,67.78
2023-01-19T10:07:35.211Z,67.78
2023-01-19T10:10:27.906Z,67.35
2023-01-19T10:12:57.716Z,66.87
2023-01-19T10:15:42.963Z,66.94
2023-01-19T10:18:36.056Z,67.46
2023-01-19T10:21:11.702Z,67.24
2023-01-19T10:24:07.221Z,66.70
2023-01-19T10:26:56.163Z,66.67
2023-01-19T10:29:36.621Z,66.82
2023-01-19T10:32:33.637Z,66.48
2023-01-19T10:35:03.411Z,66.28
2023-01-19T10:37:40.797Z,65.94
2023-01-19T10:40:13.974Z,65.73
2023-01-19T10:42:42.617Z,65.33
2023-01-19T10:45:17.864Z,64.84
2023-01-19T10:47:46.904Z,63.79
2023-01-19T10:50:29.872Z,63.02
2023-01-19T10:52:59.918Z,63.84
2023-01-19T10:55:38.686Z,64.55
2023-01-19T10:58:26.694Z,64.64
2023-01-19T11:00:53.901Z,65.33
2023-01-19T11:03:32.065Z,64.65
2023-01-19T11:06:24.270Z,64.97
2023-01-19T11:08:52.588Z,64.19
2023-01-19T11:11:21.529Z,64.83
2023-01-19T11:14:04.819Z,65.28
2023-01-19T11:16:34.738Z,65.96
2023-01-19T11:19:03.129Z,66.22
2023-01-19T11:21:32.057Z,65.75
2023-01-19T11:24:08.908Z,66.05
2023-01-19T11:26:44.936Z,65.99
2023-01-19T11:29:19.145Z,65.08
2023-01-19T11:31:45.883Z,65.87
2023-01-19T11:34:44.741Z,64.69
2023-01-19T11:37:17.224Z,64.27
2023-01-19T11:39:49.952Z,65.04
2023-01-19T11:42:17.620Z,64.98
2023-01-19T11:45:05.217Z,63.73
2023-01-19T11:47:45.227Z,64.51
2023-01-19T11:50:30.454Z,64.72
2023-01-19T11:53:24.890Z,64.62
2023-01-19T11:56:15.180Z,65.39
2023-01-19T11:58:47.416Z,64.79
2023-01-19T12:01:27.676Z,64.40
2023-01-19T12:04:04.493Z,64.36
2023-01-19T12:06:34.934Z,64.87
2023-01-19T12:09:20.119Z,65.28
2023-01-19T12:11:55.939Z,64.92
2023-01-19T12:14:34.984Z,65.47
2023-01-19T12:17:20.876Z,65.00
2023-01-19T12:19:59.559Z,65.13
2023-01-19T12:22:32.186Z,64.95
2023-01-19T12:25:15.900Z,65.24
2023-01-19T12:27:53.522Z,64.64
2023-01-19T12:30:29.199Z,65.05
2023-01-19T12:33:20.991Z,65.03
2023-01-19T12:36:01.090Z,65.20
2023-01-19T12:38:46.410Z,65.02
2023-01-19T12:41:28.735Z,64.96
2023-01-19T12:44:16.745Z,64.48
2023-01-19T12:46:54.773Z,64.80
2023-01-19T12:49:24.253Z,64.04
2023-01-19T12:51:53.991Z,64.07
2023-01-19T12:54:32.122Z,64.79
2023-01-19T12:57:09.238Z,64.38
2023-01-19T12:59:40.044Z,64.87
2023-01-19T13:02:26.053Z,64.45
2023-01-19T13:05:20.609Z,64.08
2023-01-19T13:08:02.788Z,64.09
2023-01-19T13:11:02.138Z,63.91
2023-01-19T13:13:40.388Z,64.06
2023-01-19T13:16:19.544Z,63.44
2023-01-19T13:18:48.323Z,63.79
2023-01-19T13:21:32.814Z,63.96
2023-01-19T13:24:07.778Z,64.14
2023-01-19T13:26:38.816Z,64.03
2023-01-19T13:29:05.652Z,64.42
2023-01-19T13:31:41.046Z,64.55
2023-01-19T13:34:14.421Z,64.66
2023-01-19T13:36:46.132Z,64.31
2023-01-19T13:39:26.913Z,65.54
2023-01-19T13:42:00.820Z,65.92
2023-01-19T13:44:42.391Z,65.99
2023-01-19T13:47:17.515Z,66.45
2023-01-19T13:50:04.231Z,66.69
2023-01-19T13:52:34.159Z,66.61
2023-01-19T13:55:07.823Z,66.60
2023-01-19T13:57:43.853Z,67.23
2023-01-19T14:00:16.403Z,67.84
2023-01-19T14:02:57.324Z,67.83
2023-01-19T14:05:48.414Z,67.29
2023-01-19T14:08:20.861Z,68.27
2023-01-19T14:11:02.387Z,68.90
2023-01-19T14:13:41.839Z,68.21
2023-01-19T14:16:34.156Z,69.02
2023-01-19T14:19:04.270Z,68.53
2023-01-19T14:21:55.443Z,68.78
2023-01-19T14:24:48.695Z,69.19
2023-01-19T14:27:43.640Z,69.37
2023-01-19T14:30:32.918Z,69.71
2023-01-19T14:33:00.091Z,69.50
2023-01-19T14:35:27.077Z,70.01
2023-01-19T14:37:56.210Z,69.51
2023-01-19T14:40:24.815Z,69.68
2023-01-19T14:42:53.667Z,69.83
2023-01-19T14:45:35.094Z,70.10
2023-01-19T14:48:21.083Z,70.62
2023-01-19T14:51:03.138Z,69.85
2023-01-19T14:53:46.774Z,70.32
2023-01-19T14:56:30.167Z,70.70
2023-01-19T14:58:58.974Z,70.94
2023-01-19T15:01:34.244Z,70.94
2023-01-19T15:04:06.140Z,70.56
2023-01-19T15:06:42.822Z,71.52
2023-01-19T15:09:12.302Z,70.42
2023-01-19T15:11:39.652Z,70.41
2023-01-19T15:14:06.252Z,70.43
2023-01-19T15:16:34.663Z,71.26
2023-01-19T15:19:01.103Z,71.27
2023-01-19T15:21:27.556Z,71.42
2023-01-19T15:23:55.003Z,71.67
2023-01-19T15:26:23.905Z,71.54
2023-01-19T15:28:50.837Z,72.01
2023-01-19T15:31:23.051Z,72.00
2023-01-19T15:33:49.739Z,71.87
2023-01-19T15:36:21.469Z,71.92
2023-01-19T15:38:50.750Z,72.13
2023-01-19T15:41:23.564Z,71.58
2023-01-19T15:43:50.888Z,71.95
2023-01-19T15:46:20.692Z,71.65
2023-01-19T15:48:47.897Z,71.75
2023-01-19T15:51:16.355Z,72.15
2023-01-19T15:53:44.768Z,72.22
2023-01-19T15:56:19.511Z,71.82
2023-01-19T15:58:45.981Z,71.55
2023-01-19T16:01:17.970Z,71.42
2023-01-19T16:03:45.111Z,71.98
2023-01-19T16:06:12.714Z,72.19
2023-01-19T16:08:39.933Z,71.63
2023-01-19T16:11:24.891Z,71.13
2023-01-19T16:13:51.864Z,71.28
2023-01-19T16:16:20.863Z,71.10
2023-01-19T16:18:48.691Z,71.41
2023-01-19T16:21:16.155Z,71.00
2023-01-19T16:23:42.811Z,71.97
2023-01-19T16:26:34.559Z,71.71
2023-01-19T16:29:10.007Z,71.91
2023-01-19T16:31:41.228Z,72.36
2023-01-19T16:34:08.813Z,71.72
2023-01-19T16:36:40.942Z,71.77
2023-01-19T16:39:13.916Z,71.62
2023-01-19T16:41:42.134Z,71.44
2023-01-19T16:44:30.989Z,71.32
2023-01-19T16:46:57.969Z,72.31
2023-01-19T16:49:28.498Z,71.74
2023-01-19T16:51:57.163Z,72.22
2023-01-19T16:54:27.778Z,71.30
2023-01-19T16:56:56.437Z,71.38
2023-01-19T16:59:24.957Z,71.64
2023-01-19T17:01:52.414Z,71.94
